Time;durP1;ratioP1;P1;durP2;ratioP2;P2;SDS_P1;SDS_P2;PMS_P1;PMS_P2;Temp;Humidity;BMP_temperature;BMP_pressure;BME280_temperature;BME280_humidity;BME280_pressure;Samples;Min_cycle;Max_cycle;Signal;HPM_P1;HPM_P2
2022/03/17 00:00:23;;;;;;;;;;;;;;;3.89;100.00;96414.06;1034957;28;20386;-71
2022/03/17 00:00:54;;;;;;;;;;;;;;;3.89;100.00;96414.88;1035348;28;19945;-71
2022/03/17 00:01:24;;;;;;;;;;;;;;;3.88;100.00;96410.69;1039137;28;20007;-71
2022/03/17 00:01:54;;;;;;;;;;;;;;;3.88;100.00;96412.47;1031469;28;20387;-70
2022/03/17 00:02:25;;;;;;;;;;;;;;;3.86;100.00;96412.69;1031037;28;19918;-70
2022/03/17 00:02:55;;;;;;;;;;;;;;;3.86;100.00;96410.09;1030918;28;19910;-70
2022/03/17 00:03:25;;;;;;;;;;;;;;;3.87;100.00;96408.28;1026829;28;19910;-71
2022/03/17 00:03:56;;;;;;;;;;;;;;;3.85;100.00;96411.09;1030789;28;19945;-71
2022/03/17 00:04:26;;;;;;;;;;;;;;;3.85;100.00;96413.69;1027236;28;19910;-71
2022/03/17 00:04:57;;;;;;;;;;;;;;;3.83;100.00;96413.09;1035398;28;20016;-71
2022/03/17 00:05:27;;;;;;;;;;;;;;;3.84;100.00;96408.69;1039215;28;19913;-71
2022/03/17 00:05:57;;;;;;;;;;;;;;;3.83;100.00;96410.50;1035214;28;19920;-71
2022/03/17 00:06:28;;;;;;;;;;;;;;;3.83;100.00;96415.69;1034697;28;19917;-71
2022/03/17 00:06:58;;;;;;;;;;;;;;;3.84;100.00;96411.28;1030857;28;19914;-71
2022/03/17 00:07:30;;;;;;;;;;;;;;;3.84;100.00;96411.28;1031032;28;19910;-71
2022/03/17 00:08:00;;;;;;;;;;;;;;;3.82;100.00;96408.88;1035192;28;20377;-72
2022/03/17 00:08:30;;;;;;;;;;;;;;;3.81;100.00;96401.31;1034845;28;19963;-72
2022/03/17 00:09:01;;;;;;;;;;;;;;;3.81;100.00;96412.50;1034579;28;20379;-70
2022/03/17 00:09:32;;;;;;;;;;;;;;;3.82;100.00;96408.88;1035038;28;19920;-71
2022/03/17 00:10:05;;;;;;;;;;;;;;;3.80;100.00;96408.31;1034810;28;19917;-71
2022/03/17 00:10:35;;;;;;;;;;;;;;;3.80;100.00;96408.31;1035152;28;19956;-71
2022/03/17 00:11:06;;;;;;;;;;;;;;;3.81;100.00;96406.50;1027206;28;19953;-71
2022/03/17 00:11:36;;;;;;;;;;;;;;;3.80;100.00;96405.72;1030968;28;19917;-71
2022/03/17 00:12:08;;;;;;;;;;;;;;;3.82;100.00;96414.06;1034407;28;19914;-71
2022/03/17 00:12:39;;;;;;;;;;;;;;;3.82;100.00;96402.91;1035225;28;19913;-71
2022/03/17 00:13:09;;;;;;;;;;;;;;;3.82;100.00;96408.88;1030556;28;20590;-71
2022/03/17 00:13:41;;;;;;;;;;;;;;;3.81;100.00;96412.50;1027165;28;19906;-71
2022/03/17 00:14:12;;;;;;;;;;;;;;;3.82;100.00;96408.88;1023125;28;20390;-71
2022/03/17 00:14:42;;;;;;;;;;;;;;;3.84;100.00;96409.50;1031285;28;19914;-71
2022/03/17 00:15:12;;;;;;;;;;;;;;;3.84;100.00;96406.09;1034799;28;19913;-71
2022/03/17 00:15:43;;;;;;;;;;;;;;;3.85;100.00;96408.47;1039199;28;20314;-71
2022/03/17 00:16:13;;;;;;;;;;;;;;;3.84;100.00;96406.09;1039346;28;19913;-71
2022/03/17 00:16:43;;;;;;;;;;;;;;;3.83;100.00;96409.72;1043370;28;19932;-71
2022/03/17 00:17:14;;;;;;;;;;;;;;;3.84;100.00;96411.28;1043018;28;19909;-71
2022/03/17 00:17:46;;;;;;;;;;;;;;;3.82;100.00;96408.88;1039145;28;19920;-71
2022/03/17 00:18:17;;;;;;;;;;;;;;;3.85;100.00;96412.88;1039214;28;19925;-71
2022/03/17 00:18:48;;;;;;;;;;;;;;;3.80;100.00;96416.09;1034960;28;19929;-72
2022/03/17 00:19:18;;;;;;;;;;;;;;;3.78;100.00;96411.09;1034267;28;20020;-71
2022/03/17 00:19:48;;;;;;;;;;;;;;;3.77;100.00;96417.28;1034871;28;19913;-71
2022/03/17 00:20:19;;;;;;;;;;;;;;;3.77;100.00;96416.50;1035094;28;19927;-71
2022/03/17 00:20:50;;;;;;;;;;;;;;;3.78;100.00;96413.69;1032339;28;19933;-71
2022/03/17 00:21:20;;;;;;;;;;;;;;;3.78;100.00;96407.72;1034971;28;19917;-71
2022/03/17 00:21:51;;;;;;;;;;;;;;;3.78;100.00;96413.69;1030963;28;19918;-71
2022/03/17 00:22:21;;;;;;;;;;;;;;;3.80;100.00;96413.50;1027070;28;19921;-71
2022/03/17 00:22:51;;;;;;;;;;;;;;;3.79;100.00;96409.31;1030954;28;20018;-71
2022/03/17 00:23:22;;;;;;;;;;;;;;;3.78;100.00;96412.91;1035217;28;19945;-72
2022/03/17 00:23:52;;;;;;;;;;;;;;;3.80;100.00;96415.31;1035074;28;20314;-71
2022/03/17 00:24:23;;;;;;;;;;;;;;;3.80;100.00;96415.31;1030709;28;19933;-71
2022/03/17 00:24:54;;;;;;;;;;;;;;;3.79;100.00;96406.72;1031052;28;19921;-71
2022/03/17 00:25:25;;;;;;;;;;;;;;;3.81;100.00;96416.88;1027018;28;19922;-71
2022/03/17 00:25:56;;;;;;;;;;;;;;;3.80;100.00;96410.91;1031371;28;19929;-71
2022/03/17 00:26:26;;;;;;;;;;;;;;;3.82;100.00;96406.28;1039101;28;19918;-71
2022/03/17 00:26:56;;;;;;;;;;;;;;;3.80;100.00;96408.31;1035063;28;19918;-71
2022/03/17 00:27:26;;;;;;;;;;;;;;;3.80;100.00;96415.31;1039338;28;19991;-71
2022/03/17 00:27:57;;;;;;;;;;;;;;;3.78;100.00;96418.09;1038855;28;20310;-71
2022/03/17 00:28:27;;;;;;;;;;;;;;;3.78;100.00;96412.91;1039113;28;19924;-71
2022/03/17 00:28:58;;;;;;;;;;;;;;;3.76;100.00;96410.50;1038752;28;20325;-70
2022/03/17 00:29:28;;;;;;;;;;;;;;;3.77;100.00;96421.69;1038682;28;19921;-71
2022/03/17 00:29:59;;;;;;;;;;;;;;;3.74;100.00;96419.50;1034951;28;19988;-71
2022/03/17 00:30:29;;;;;;;;;;;;;;;3.72;100.00;96411.09;1034979;28;20339;-72
2022/03/17 00:31:01;;;;;;;;;;;;;;;3.74;100.00;96411.72;1039206;28;20329;-71
2022/03/17 00:31:35;;;;;;;;;;;;;;;3.74;100.00;96411.72;1039044;28;19913;-71
2022/03/17 00:32:05;;;;;;;;;;;;;;;3.73;100.00;96404.94;1039093;28;19917;-71
2022/03/17 00:32:36;;;;;;;;;;;;;;;3.73;100.00;96408.31;1039145;28;19913;-70
2022/03/17 00:33:06;;;;;;;;;;;;;;;3.73;100.00;96410.13;1035059;28;19925;-71
2022/03/17 00:33:36;;;;;;;;;;;;;;;3.72;100.00;96400.72;1031053;28;19921;-71
2022/03/17 00:34:07;;;;;;;;;;;;;;;3.70;100.00;96406.13;1030841;28;19924;-71
2022/03/17 00:35:35;;;;;;;;;;;;;;;3.70;100.00;96402.75;1032080;28;19925;-71
2022/03/17 00:35:36;;;;;;;;;;;;;;;3.72;100.00;96400.72;1031141;28;20733;-71
2022/03/17 00:36:06;;;;;;;;;;;;;;;3.69;100.00;96396.75;1034693;28;19913;-71
2022/03/17 00:36:40;;;;;;;;;;;;;;;3.69;100.00;96398.53;1030804;28;20565;-71
2022/03/17 00:37:10;;;;;;;;;;;;;;;3.67;100.00;96400.56;1030984;28;20000;-71
2022/03/17 00:37:41;;;;;;;;;;;;;;;3.66;100.00;96396.38;1030966;28;19985;-71
2022/03/17 00:38:13;;;;;;;;;;;;;;;3.64;100.00;96395.75;1036166;28;19914;-71
2022/03/17 00:38:43;;;;;;;;;;;;;;;3.66;100.00;96398.97;1043612;28;20309;-71
2022/03/17 00:39:15;;;;;;;;;;;;;;;3.66;100.00;96388.59;1038428;28;19923;-71
2022/03/17 00:39:45;;;;;;;;;;;;;;;3.67;100.00;96400.56;1035125;28;19920;-71
2022/03/17 00:40:16;;;;;;;;;;;;;;;3.66;100.00;96398.97;1034787;28;19925;-71
2022/03/17 00:40:46;;;;;;;;;;;;;;;3.67;100.00;96400.56;1035471;28;19909;-71
2022/03/17 00:41:16;;;;;;;;;;;;;;;3.64;100.00;96401.75;1034958;28;20389;-71
2022/03/17 00:41:47;;;;;;;;;;;;;;;3.64;100.00;96400.94;1039252;28;19925;-71
2022/03/17 00:42:20;;;;;;;;;;;;;;;3.62;100.00;96397.75;1039207;28;19949;-71
2022/03/17 00:42:51;;;;;;;;;;;;;;;3.63;100.00;96396.78;1031088;28;19913;-71
2022/03/17 00:43:24;;;;;;;;;;;;;;;3.63;100.00;96397.56;1034870;28;19952;-71
2022/03/17 00:43:54;;;;;;;;;;;;;;;3.63;100.00;96399.38;1035293;28;19972;-72
2022/03/17 00:44:25;;;;;;;;;;;;;;;3.63;100.00;96405.34;1034672;28;19961;-71
2022/03/17 00:44:55;;;;;;;;;;;;;;;3.63;100.00;96399.38;1038669;28;19925;-71
2022/03/17 00:45:25;;;;;;;;;;;;;;;3.41;100.00;96373.63;1038987;28;19917;-71
2022/03/17 00:45:56;;;;;;;;;;;;;;;3.61;100.00;96396.16;1039177;28;19920;-71
2022/03/17 00:46:26;;;;;;;;;;;;;;;3.61;100.00;96396.16;1038923;28;20015;-71
2022/03/17 00:46:57;;;;;;;;;;;;;;;3.63;100.00;96391.56;1035075;28;20717;-71
2022/03/17 00:47:27;;;;;;;;;;;;;;;3.62;100.00;96392.56;1030807;28;19921;-71
2022/03/17 00:47:57;;;;;;;;;;;;;;;3.62;100.00;96395.97;1029449;28;19980;-71
2022/03/17 00:48:29;;;;;;;;;;;;;;;3.61;100.00;96391.75;1030761;28;19914;-71
2022/03/17 00:48:59;;;;;;;;;;;;;;;3.61;100.00;96396.16;1030914;28;20326;-71
2022/03/17 00:49:29;;;;;;;;;;;;;;;3.60;100.00;96400.56;1034895;28;19917;-71
2022/03/17 00:50:00;;;;;;;;;;;;;;;3.59;100.00;96395.56;1038781;28;19913;-71
2022/03/17 00:50:30;;;;;;;;;;;;;;;3.58;100.00;96397.34;1038980;28;20007;-71
2022/03/17 00:51:00;;;;;;;;;;;;;;;3.58;100.00;96393.97;1043378;28;20400;-71
2022/03/17 00:51:31;;;;;;;;;;;;;;;3.57;100.00;96400.16;1034764;28;19917;-71
2022/03/17 00:52:01;;;;;;;;;;;;;;;3.57;100.00;96395.78;1030962;28;19914;-71
2022/03/17 00:52:31;;;;;;;;;;;;;;;3.57;100.00;96397.56;1030808;28;19922;-71
2022/03/17 00:53:02;;;;;;;;;;;;;;;3.58;100.00;96401.75;1030657;28;19918;-71
2022/03/17 00:53:32;;;;;;;;;;;;;;;3.57;100.00;96400.16;1035221;28;20011;-71
2022/03/17 00:54:03;;;;;;;;;;;;;;;3.57;100.00;96400.16;1034896;28;19919;-71
2022/03/17 00:54:33;;;;;;;;;;;;;;;3.58;100.00;96399.16;1032151;28;20485;-71
2022/03/17 00:55:05;;;;;;;;;;;;;;;3.57;100.00;96395.78;1033809;28;20798;-72
2022/03/17 00:55:35;;;;;;;;;;;;;;;3.54;100.00;96402.16;1034968;28;19925;-71
2022/03/17 00:56:05;;;;;;;;;;;;;;;3.53;100.00;96390.19;1035103;28;19925;-71
2022/03/17 00:56:36;;;;;;;;;;;;;;;3.54;100.00;96396.97;1035012;28;19920;-71
2022/03/17 00:57:06;;;;;;;;;;;;;;;3.56;100.00;96390.78;1030742;28;19913;-71
2022/03/17 00:57:37;;;;;;;;;;;;;;;3.56;100.00;96398.56;1026975;28;19921;-71
2022/03/17 00:58:07;;;;;;;;;;;;;;;3.57;100.00;96395.78;1026762;28;19953;-71
2022/03/17 00:58:38;;;;;;;;;;;;;;;3.58;100.00;96393.97;1023048;28;19954;-70
2022/03/17 00:59:08;;;;;;;;;;;;;;;3.58;100.00;96396.56;1026250;28;19918;-70
2022/03/17 00:59:40;;;;;;;;;;;;;;;3.58;100.00;96393.97;1030681;28;19926;-71
2022/03/17 01:00:14;;;;;;;;;;;;;;;3.57;100.00;96393.19;1031272;28;19921;-71
2022/03/17 01:00:44;;;;;;;;;;;;;;;3.57;100.00;96398.38;1039028;28;20013;-71
2022/03/17 01:01:15;;;;;;;;;;;;;;;3.57;100.00;96392.38;1030522;28;20555;-71
2022/03/17 01:01:46;;;;;;;;;;;;;;;3.57;100.00;96394.97;1030399;28;19925;-71
2022/03/17 01:02:19;;;;;;;;;;;;;;;3.57;100.00;96395.78;1030798;28;19918;-71
2022/03/17 01:02:56;;;;;;;;;;;;;;;3.59;100.00;96396.38;1031968;28;19918;-71
2022/03/17 01:03:26;;;;;;;;;;;;;;;3.58;100.00;96391.38;1040014;28;20016;-71
2022/03/17 01:03:56;;;;;;;;;;;;;;;3.59;100.00;96392.97;1042977;28;20040;-71
2022/03/17 01:04:27;;;;;;;;;;;;;;;3.58;100.00;96394.75;1043064;28;20476;-71
2022/03/17 01:04:57;;;;;;;;;;;;;;;3.58;100.00;96394.75;1038880;28;19917;-71
2022/03/17 01:05:28;;;;;;;;;;;;;;;3.57;100.00;96389.78;1038971;28;20124;-72
2022/03/17 01:05:59;;;;;;;;;;;;;;;3.58;100.00;96388.78;1034992;28;19914;-71
2022/03/17 01:06:29;;;;;;;;;;;;;;;3.57;100.00;96384.59;1026956;28;20639;-71
2022/03/17 01:06:59;;;;;;;;;;;;;;;3.56;100.00;96383.00;1030849;28;19924;-71
2022/03/17 01:07:32;;;;;;;;;;;;;;;3.56;100.00;96383.00;1022613;29;20400;-71
2022/03/17 01:08:03;;;;;;;;;;;;;;;3.53;100.00;96379.81;1019623;28;19919;-71
2022/03/17 01:08:33;;;;;;;;;;;;;;;3.54;100.00;96381.41;1026713;28;19919;-71
2022/03/17 01:09:03;;;;;;;;;;;;;;;3.53;100.00;96382.41;1027432;28;20020;-71
2022/03/17 01:09:34;;;;;;;;;;;;;;;3.54;100.00;96381.41;1038757;28;20547;-71
2022/03/17 01:10:05;;;;;;;;;;;;;;;3.54;100.00;96381.41;1034588;28;19909;-71
2022/03/17 01:10:37;;;;;;;;;;;;;;;3.53;100.00;96379.00;1030675;28;19914;-71
2022/03/17 01:11:07;;;;;;;;;;;;;;;3.53;100.00;96374.63;1031024;28;19917;-71
2022/03/17 01:11:38;;;;;;;;;;;;;;;3.53;100.00;96379.00;1031000;28;19921;-71
2022/03/17 01:12:08;;;;;;;;;;;;;;;3.52;100.00;96377.41;1035077;28;20604;-71
2022/03/17 01:12:38;;;;;;;;;;;;;;;3.53;100.00;96381.63;1034723;28;19957;-71
2022/03/17 01:13:09;;;;;;;;;;;;;;;3.50;100.00;96369.03;1034912;28;19976;-71
2022/03/17 01:13:39;;;;;;;;;;;;;;;3.51;100.00;96376.59;1034666;28;19918;-71
2022/03/17 01:14:09;;;;;;;;;;;;;;;3.52;100.00;96375.63;1035028;28;19913;-71
2022/03/17 01:14:39;;;;;;;;;;;;;;;3.53;100.00;96372.03;1034772;28;19924;-71
2022/03/17 01:15:10;;;;;;;;;;;;;;;3.54;100.00;96376.22;1038980;28;19913;-71
2022/03/17 01:15:43;;;;;;;;;;;;;;;3.55;100.00;96371.81;1035125;28;19913;-71
2022/03/17 01:16:13;;;;;;;;;;;;;;;3.54;100.00;96376.22;1034881;28;19953;-71
2022/03/17 01:16:44;;;;;;;;;;;;;;;3.55;100.00;96377.00;1035073;28;19917;-71
2022/03/17 01:17:14;;;;;;;;;;;;;;;3.53;100.00;96374.63;1035136;28;19917;-71
2022/03/17 01:17:44;;;;;;;;;;;;;;;3.54;100.00;96378.00;1030611;28;19920;-71
2022/03/17 01:18:15;;;;;;;;;;;;;;;3.54;100.00;96365.81;1035113;28;19948;-71
2022/03/17 01:18:45;;;;;;;;;;;;;;;3.56;100.00;96377.81;1034777;28;19920;-71
2022/03/17 01:19:17;;;;;;;;;;;;;;;3.55;100.00;96377.00;1031986;28;19967;-71
2022/03/17 01:19:47;;;;;;;;;;;;;;;3.16;100.00;96307.84;1030754;28;19914;-71
2022/03/17 01:20:17;;;;;;;;;;;;;;;3.56;100.00;96368.22;1030983;28;19922;-71
2022/03/17 01:20:48;;;;;;;;;;;;;;;3.57;100.00;96363.84;1027822;28;19914;-71
2022/03/17 01:21:21;;;;;;;;;;;;;;;3.58;100.00;96360.25;1031029;28;19965;-71
2022/03/17 01:21:52;;;;;;;;;;;;;;;3.60;100.00;96360.84;1030979;28;19924;-71
2022/03/17 01:22:23;;;;;;;;;;;;;;;3.61;100.00;96357.25;1031697;28;19960;-71
2022/03/17 01:22:53;;;;;;;;;;;;;;;3.61;100.00;96355.44;1040470;28;20052;-71
2022/03/17 01:23:23;;;;;;;;;;;;;;;3.63;100.00;96356.03;1043453;28;19988;-71
2022/03/17 01:23:54;;;;;;;;;;;;;;;3.63;100.00;96352.66;1030609;28;19916;-70
2022/03/17 01:24:24;;;;;;;;;;;;;;;3.64;100.00;96354.25;1030673;28;19928;-71
2022/03/17 01:24:54;;;;;;;;;;;;;;;3.65;100.00;96350.63;1026956;28;19918;-71
2022/03/17 01:25:25;;;;;;;;;;;;;;;3.63;100.00;96358.63;1026638;28;19965;-71
2022/03/17 01:25:55;;;;;;;;;;;;;;;3.62;100.00;96356.22;1034765;28;19928;-71
2022/03/17 01:26:25;;;;;;;;;;;;;;;3.62;100.00;96356.22;1030654;28;19914;-71
2022/03/17 01:26:56;;;;;;;;;;;;;;;3.62;100.00;96351.88;1030747;28;20020;-71
2022/03/17 01:27:26;;;;;;;;;;;;;;;3.64;100.00;96360.22;1030970;28;20343;-71
2022/03/17 01:27:57;;;;;;;;;;;;;;;3.67;100.00;96364.22;1034582;28;19944;-71
2022/03/17 01:28:27;;;;;;;;;;;;;;;3.67;100.00;96359.81;1038904;28;19918;-71
2022/03/17 01:28:58;;;;;;;;;;;;;;;3.66;100.00;96357.44;1038674;28;19917;-71
2022/03/17 01:29:31;;;;;;;;;;;;;;;3.66;100.00;96365.22;1043305;28;19921;-71
2022/03/17 01:30:02;;;;;;;;;;;;;;;3.67;100.00;96364.22;1043845;28;19912;-72
2022/03/17 01:30:32;;;;;;;;;;;;;;;3.67;100.00;96364.22;1041700;28;19932;-71
2022/03/17 01:31:02;;;;;;;;;;;;;;;3.65;100.00;96366.22;1041156;28;20783;-71
2022/03/17 01:31:32;;;;;;;;;;;;;;;3.66;100.00;96367.81;1044064;28;20116;-71
2022/03/17 01:32:03;;;;;;;;;;;;;;;3.67;100.00;96372.78;1039900;28;19920;-71
2022/03/17 01:32:33;;;;;;;;;;;;;;;3.66;100.00;96363.44;1039622;28;19917;-71
2022/03/17 01:33:04;;;;;;;;;;;;;;;3.67;100.00;96364.22;1035415;28;20002;-71
2022/03/17 01:33:37;;;;;;;;;;;;;;;3.66;100.00;96370.41;1030549;28;19921;-72
2022/03/17 01:34:07;;;;;;;;;;;;;;;3.64;100.00;96362.03;1031084;28;20712;-71
2022/03/17 01:34:39;;;;;;;;;;;;;;;3.64;100.00;96362.03;1030778;28;19918;-71
2022/03/17 01:35:09;;;;;;;;;;;;;;;3.65;100.00;96361.00;1030991;28;19917;-71
2022/03/17 01:35:40;;;;;;;;;;;;;;;3.64;100.00;96360.22;1031776;28;19918;-71
2022/03/17 01:36:10;;;;;;;;;;;;;;;3.62;100.00;96354.47;1026803;28;19925;-71
2022/03/17 01:36:40;;;;;;;;;;;;;;;3.62;100.00;96364.00;1030681;28;19957;-71
2022/03/17 01:37:10;;;;;;;;;;;;;;;3.62;100.00;96361.41;1031040;28;19918;-71
2022/03/17 01:37:41;;;;;;;;;;;;;;;3.62;100.00;96364.00;1026679;28;19914;-71
2022/03/17 01:38:11;;;;;;;;;;;;;;;3.62;100.00;96353.63;1030950;28;19909;-71
2022/03/17 01:38:41;;;;;;;;;;;;;;;3.63;100.00;96360.44;1030652;28;19918;-71
2022/03/17 01:39:12;;;;;;;;;;;;;;;3.62;100.00;96361.41;1030206;28;19914;-71
2022/03/17 01:39:42;;;;;;;;;;;;;;;3.63;100.00;96363.03;1035019;28;19921;-71
2022/03/17 01:40:12;;;;;;;;;;;;;;;3.61;100.00;96360.63;1030772;28;19924;-71
2022/03/17 01:40:43;;;;;;;;;;;;;;;3.61;100.00;96370.22;1030052;28;20338;-71
2022/03/17 01:41:14;;;;;;;;;;;;;;;3.61;100.00;96365.03;1034945;28;19920;-71
2022/03/17 01:41:44;;;;;;;;;;;;;;;3.62;100.00;96366.59;1035079;28;19917;-71
2022/03/17 01:42:14;;;;;;;;;;;;;;;3.61;100.00;96357.25;1039287;28;20402;-71
2022/03/17 01:42:45;;;;;;;;;;;;;;;3.63;100.00;96357.84;1038690;28;19913;-71
2022/03/17 01:43:15;;;;;;;;;;;;;;;3.62;100.00;96362.25;1030522;28;19916;-71
2022/03/17 01:43:45;;;;;;;;;;;;;;;3.62;100.00;96361.41;1027046;28;19917;-71
2022/03/17 01:44:15;;;;;;;;;;;;;;;3.62;100.00;96359.66;1026912;28;20000;-71
2022/03/17 01:44:46;;;;;;;;;;;;;;;3.62;100.00;96358.81;1030559;28;20327;-71
2022/03/17 01:45:16;;;;;;;;;;;;;;;3.62;100.00;96354.47;1035082;28;19928;-71
2022/03/17 01:45:51;;;;;;;;;;;;;;;3.60;100.00;96348.66;1038895;28;19921;-71
2022/03/17 01:46:21;;;;;;;;;;;;;;;3.60;100.00;96348.66;1035656;28;19914;-71
2022/03/17 01:47:42;;;;;;;;;;;;;;;3.44;100.00;96318.75;1029595;28;19973;-70
2022/03/17 01:48:12;;;;;;;;;;;;;;;3.62;100.00;96348.44;1029164;28;20477;-71
2022/03/17 01:48:43;;;;;;;;;;;;;;;3.62;100.00;96348.44;1029175;28;19922;-71
2022/03/17 01:49:13;;;;;;;;;;;;;;;3.63;100.00;96355.25;1026380;28;19961;-71
2022/03/17 01:49:43;;;;;;;;;;;;;;;3.63;100.00;96352.66;1030587;28;19953;-71
2022/03/17 01:50:14;;;;;;;;;;;;;;;3.62;100.00;96351.03;1030669;28;20011;-71
2022/03/17 01:50:45;;;;;;;;;;;;;;;3.60;100.00;96347.88;1026915;28;19910;-71
2022/03/17 01:51:15;;;;;;;;;;;;;;;3.60;100.00;96348.66;1030620;28;19918;-71
2022/03/17 01:51:47;;;;;;;;;;;;;;;3.64;100.00;96349.84;1030786;28;20029;-71
2022/03/17 01:52:17;;;;;;;;;;;;;;;3.65;100.00;96350.63;1031000;28;19988;-71
2022/03/17 01:52:48;;;;;;;;;;;;;;;3.64;100.00;96349.06;1030794;28;20011;-71
2022/03/17 01:53:19;;;;;;;;;;;;;;;3.66;100.00;96347.06;1026625;28;19914;-71
2022/03/17 01:53:49;;;;;;;;;;;;;;;3.64;100.00;96349.06;1026665;28;20062;-70
2022/03/17 01:54:19;;;;;;;;;;;;;;;3.64;100.00;96349.84;1026892;28;20046;-71
2022/03/17 01:54:50;;;;;;;;;;;;;;;3.66;100.00;96347.06;1027769;28;19910;-71
2022/03/17 01:55:21;;;;;;;;;;;;;;;3.64;100.00;96354.25;1030443;28;20004;-71
2022/03/17 01:55:51;;;;;;;;;;;;;;;3.64;100.00;96351.66;1034483;28;19921;-71
2022/03/17 01:56:22;;;;;;;;;;;;;;;3.63;100.00;96355.25;1035658;28;19917;-72
2022/03/17 01:56:52;;;;;;;;;;;;;;;3.64;100.00;96349.06;1035640;28;19960;-71
2022/03/17 01:57:22;;;;;;;;;;;;;;;3.63;100.00;96350.06;1035262;28;19914;-71
2022/03/17 01:57:53;;;;;;;;;;;;;;;3.61;100.00;96344.25;1031124;28;19910;-71
2022/03/17 01:58:24;;;;;;;;;;;;;;;3.63;100.00;96347.47;1031033;28;19914;-71
2022/03/17 01:58:54;;;;;;;;;;;;;;;3.62;100.00;96354.47;1035368;28;19913;-72
2022/03/17 01:59:25;;;;;;;;;;;;;;;3.62;100.00;96345.84;1031106;28;19910;-72
2022/03/17 01:59:55;;;;;;;;;;;;;;;3.60;100.00;96338.28;1035138;28;19917;-71
2022/03/17 02:00:26;;;;;;;;;;;;;;;3.60;100.00;96342.69;1031542;28;19914;-71
2022/03/17 02:00:56;;;;;;;;;;;;;;;3.61;100.00;96344.25;1031697;28;19945;-71
2022/03/17 02:01:26;;;;;;;;;;;;;;;3.62;100.00;96340.66;1035526;28;19910;-71
2022/03/17 02:01:57;;;;;;;;;;;;;;;3.63;100.00;96347.47;1031276;28;19910;-70
2022/03/17 02:02:27;;;;;;;;;;;;;;;3.63;100.00;96337.09;1031418;28;19972;-71
2022/03/17 02:02:57;;;;;;;;;;;;;;;3.62;100.00;96338.88;1027390;28;19918;-72
2022/03/17 02:03:27;;;;;;;;;;;;;;;3.63;100.00;96347.47;1027274;28;19918;-71
2022/03/17 02:03:58;;;;;;;;;;;;;;;3.62;100.00;96345.84;1027434;28;20390;-71
2022/03/17 02:04:28;;;;;;;;;;;;;;;3.63;100.00;96337.09;1031695;28;19910;-72
2022/03/17 02:04:59;;;;;;;;;;;;;;;3.64;100.00;96339.47;1032002;28;19914;-71
2022/03/17 02:05:33;;;;;;;;;;;;;;;3.64;100.00;96343.88;1035501;28;19913;-72
2022/03/17 02:06:03;;;;;;;;;;;;;;;3.63;100.00;96337.88;1031231;28;19921;-71
2022/03/17 02:06:33;;;;;;;;;;;;;;;3.63;100.00;96347.47;1031407;28;19913;-71
2022/03/17 02:07:05;;;;;;;;;;;;;;;3.63;100.00;96350.06;1032091;28;19969;-71
2022/03/17 02:07:35;;;;;;;;;;;;;;;3.61;100.00;96346.84;1027619;28;19994;-71
2022/03/17 02:08:11;;;;;;;;;;;;;;;3.61;100.00;96342.47;1035449;28;19913;-71
2022/03/17 02:08:42;;;;;;;;;;;;;;;3.63;100.00;96343.06;1035174;28;19921;-71
2022/03/17 02:09:12;;;;;;;;;;;;;;;3.64;100.00;96339.47;1035592;28;19909;-71
2022/03/17 02:09:43;;;;;;;;;;;;;;;3.65;100.00;96340.25;1035529;28;19920;-71
2022/03/17 02:10:13;;;;;;;;;;;;;;;3.64;100.00;96338.66;1031179;28;19921;-71
2022/03/17 02:13:09;;;;;;;;;;;;;;;3.63;100.00;96344.88;1039621;28;19933;-71
2022/03/17 02:13:41;;;;;;;;;;;;;;;3.63;100.00;96342.28;1035821;28;19909;-73
2022/03/17 02:14:13;;;;;;;;;;;;;;;3.65;100.00;96340.25;1036144;28;19920;-71
2022/03/17 02:14:53;;;;;;;;;;;;;;;3.63;100.00;96337.88;1036576;28;19917;-72
2022/03/17 02:15:26;;;;;;;;;;;;;;;3.65;100.00;96345.44;1042261;28;19979;-71
2022/03/17 02:15:56;;;;;;;;;;;;;;;3.64;100.00;96349.06;1044521;28;19912;-71
2022/03/17 02:16:27;;;;;;;;;;;;;;;3.64;100.00;96343.88;1040345;28;19961;-71
2022/03/17 02:16:57;;;;;;;;;;;;;;;3.64;100.00;96343.88;1035923;28;19921;-71
2022/03/17 02:17:30;;;;;;;;;;;;;;;3.63;100.00;96347.47;1036054;28;19965;-71
2022/03/17 02:18:06;;;;;;;;;;;;;;;3.62;100.00;96345.84;1032891;28;19927;-71
2022/03/17 02:18:36;;;;;;;;;;;;;;;3.63;100.00;96347.47;1037153;28;20476;-71
2022/03/17 02:19:10;;;;;;;;;;;;;;;3.62;100.00;96343.25;1039638;28;19921;-71
2022/03/17 02:19:40;;;;;;;;;;;;;;;3.61;100.00;96349.47;1040213;28;20378;-71
2022/03/17 02:20:11;;;;;;;;;;;;;;;3.60;100.00;96342.69;1031852;28;19941;-71
2022/03/17 02:20:42;;;;;;;;;;;;;;;3.60;100.00;96342.69;1024171;28;19969;-72
2022/03/17 02:21:12;;;;;;;;;;;;;;;3.61;100.00;96339.06;1024398;28;19962;-71
2022/03/17 02:21:44;;;;;;;;;;;;;;;3.60;100.00;96334.91;1028260;28;19922;-71
2022/03/17 02:22:18;;;;;;;;;;;;;;;3.61;100.00;96341.66;1036692;28;20395;-71
2022/03/17 02:22:49;;;;;;;;;;;;;;;3.60;100.00;96343.47;1040279;28;19917;-71
2022/03/17 02:25:50;;;;;;;;;;;;;;;3.60;100.00;96334.91;1040315;28;19913;-71
2022/03/17 02:26:20;;;;;;;;;;;;;;;3.60;100.00;96335.69;1040339;28;19913;-70
2022/03/17 02:26:55;;;;;;;;;;;;;;;3.61;100.00;96339.88;1036203;28;19932;-71
2022/03/17 02:27:29;;;;;;;;;;;;;;;3.60;100.00;96340.09;1036537;28;20019;-71
2022/03/17 02:28:00;;;;;;;;;;;;;;;3.58;100.00;96336.88;1036183;28;20369;-71
2022/03/17 02:28:31;;;;;;;;;;;;;;;3.59;100.00;96335.88;1037229;28;19926;-71
2022/03/17 02:29:01;;;;;;;;;;;;;;;3.62;100.00;96338.06;1039812;28;20301;-70
2022/03/17 02:29:32;;;;;;;;;;;;;;;3.62;100.00;96340.66;1040516;28;19928;-71
2022/03/17 02:30:03;;;;;;;;;;;;;;;3.62;100.00;96343.25;1040192;28;19960;-71
2022/03/17 02:30:34;;;;;;;;;;;;;;;3.62;100.00;96343.25;1036066;28;19931;-71
2022/03/17 02:31:06;;;;;;;;;;;;;;;3.62;100.00;96338.06;1031904;28;19910;-71
2022/03/17 02:31:37;;;;;;;;;;;;;;;3.64;100.00;96343.88;1032291;28;19921;-71
2022/03/17 02:32:09;;;;;;;;;;;;;;;3.61;100.00;96345.06;1028643;28;20489;-70
2022/03/17 02:32:40;;;;;;;;;;;;;;;3.60;100.00;96343.47;1031711;28;19914;-70
2022/03/17 02:33:10;;;;;;;;;;;;;;;3.60;100.00;96342.69;1032871;28;20446;-71
2022/03/17 02:33:42;;;;;;;;;;;;;;;3.59;100.00;96341.06;1036404;28;19933;-71
2022/03/17 02:34:16;;;;;;;;;;;;;;;3.58;100.00;96345.47;1040416;28;19940;-71
2022/03/17 02:34:46;;;;;;;;;;;;;;;3.59;100.00;96347.06;1040754;28;19919;-71
2022/03/17 02:35:22;;;;;;;;;;;;;;;3.60;100.00;96353.84;1044331;28;19943;-71
2022/03/17 02:35:53;;;;;;;;;;;;;;;3.61;100.00;96349.47;1044851;28;19923;-71
2022/03/17 02:36:24;;;;;;;;;;;;;;;3.62;100.00;96351.88;1044121;28;19912;-70
2022/03/17 02:36:55;;;;;;;;;;;;;;;3.59;100.00;96356.63;1040221;28;20564;-72
2022/03/17 02:37:28;;;;;;;;;;;;;;;3.58;100.00;96355.03;1040236;28;19921;-70
2022/03/17 02:37:59;;;;;;;;;;;;;;;3.58;100.00;96353.25;1035800;28;19913;-71
2022/03/17 02:38:29;;;;;;;;;;;;;;;3.56;100.00;96347.47;1032389;28;19912;-71
2022/03/17 02:38:59;;;;;;;;;;;;;;;3.58;100.00;96353.25;1031393;28;19987;-70
2022/03/17 02:39:30;;;;;;;;;;;;;;;3.57;100.00;96350.88;1031759;28;19910;-71
2022/03/17 02:40:01;;;;;;;;;;;;;;;3.56;100.00;96357.06;1031860;28;19945;-70
2022/03/17 02:40:31;;;;;;;;;;;;;;;3.54;100.00;96358.03;1032091;28;20177;-71
2022/03/17 02:41:01;;;;;;;;;;;;;;;3.54;100.00;96359.84;1031949;28;19925;-71
2022/03/17 02:41:32;;;;;;;;;;;;;;;3.52;100.00;96352.28;1032299;28;20410;-71
2022/03/17 02:42:03;;;;;;;;;;;;;;;3.53;100.00;96353.88;1040032;28;19955;-70
2022/03/17 02:42:33;;;;;;;;;;;;;;;3.52;100.00;96352.28;1036345;28;20383;-71
2022/03/17 02:43:04;;;;;;;;;;;;;;;3.54;100.00;96352.84;1038081;28;19917;-70
2022/03/17 02:43:37;;;;;;;;;;;;;;;3.53;100.00;96356.47;1040456;28;19948;-71
2022/03/17 02:44:10;;;;;;;;;;;;;;;3.51;100.00;96348.06;1040447;28;19973;-71
2022/03/17 02:44:41;;;;;;;;;;;;;;;3.49;100.00;96347.50;1035796;28;19913;-71
2022/03/17 02:45:11;;;;;;;;;;;;;;;3.49;100.00;96352.69;1036278;28;19968;-71
2022/03/17 02:45:43;;;;;;;;;;;;;;;3.49;100.00;96347.50;1032611;28;19914;-71
2022/03/17 02:46:13;;;;;;;;;;;;;;;3.50;100.00;96343.09;1036302;28;20213;-71
2022/03/17 02:46:43;;;;;;;;;;;;;;;3.50;100.00;96345.69;1040231;28;19928;-71
2022/03/17 02:47:14;;;;;;;;;;;;;;;3.49;100.00;96342.31;1035915;28;19913;-71